createdAt,value
2018-02-15T00:01:25.939Z,99189.65
2018-02-15T00:03:53.515Z,99187.86
2018-02-15T00:06:21.041Z,99191.41
2018-02-15T00:08:48.594Z,99186.15
2018-02-15T00:11:16.127Z,99204.45
2018-02-15T00:13:43.674Z,99200.48
2018-02-15T00:16:11.254Z,99200.45
2018-02-15T00:18:38.831Z,99202.05
2018-02-15T00:21:06.355Z,99195.80
2018-02-15T00:23:33.928Z,99204.70
2018-02-15T00:26:01.488Z,99192.08
2018-02-15T00:28:29.012Z,99197.37
2018-02-15T00:30:56.591Z,99194.66
2018-02-15T00:33:24.116Z,99192.08
2018-02-15T00:35:51.668Z,99196.60
2018-02-15T00:38:19.272Z,99199.48
2018-02-15T00:40:46.823Z,99190.18
2018-02-15T00:43:14.401Z,99192.08
2018-02-15T00:45:41.979Z,99187.20
2018-02-15T00:48:09.506Z,99184.38
2018-02-15T00:50:37.032Z,99195.63
2018-02-15T00:53:04.638Z,99180.63
2018-02-15T00:55:32.486Z,99173.66
2018-02-15T00:58:00.064Z,99169.53
2018-02-15T01:00:27.591Z,99168.23
2018-02-15T01:02:55.169Z,99165.06
2018-02-15T01:05:22.696Z,99160.38
2018-02-15T01:07:50.302Z,99157.08
2018-02-15T01:10:17.826Z,99157.88
2018-02-15T01:12:45.421Z,99156.38
2018-02-15T01:15:12.927Z,99160.50
2018-02-15T01:17:40.458Z,99154.16
2018-02-15T01:20:08.217Z,99160.92
2018-02-15T01:22:36.966Z,99147.98
2018-02-15T01:25:04.560Z,99151.90
2018-02-15T01:27:32.120Z,99146.79
2018-02-15T01:30:00.081Z,99146.66
2018-02-15T01:32:28.429Z,99141.56
2018-02-15T01:34:56.324Z,99143.52
2018-02-15T01:37:23.943Z,99143.39
2018-02-15T01:39:51.542Z,99134.88
2018-02-15T01:42:19.100Z,99138.17
2018-02-15T01:44:47.159Z,99145.78
2018-02-15T01:47:14.739Z,99147.93
2018-02-15T01:49:54.214Z,99134.36
2018-02-15T01:52:21.739Z,99135.77
2018-02-15T01:54:49.255Z,99124.66
2018-02-15T01:57:16.944Z,99124.94
2018-02-15T01:59:44.539Z,99109.48
2018-02-15T02:02:12.273Z,99108.14
2018-02-15T02:04:39.802Z,99117.67
2018-02-15T02:07:07.354Z,99108.24
2018-02-15T02:09:34.882Z,99101.11
2018-02-15T02:12:02.430Z,99099.08
2018-02-15T02:14:29.967Z,99093.01
2018-02-15T02:16:57.488Z,99098.06
2018-02-15T02:19:25.068Z,99075.89
2018-02-15T02:21:52.590Z,99090.98
2018-02-15T02:24:20.144Z,99085.56
2018-02-15T02:26:47.670Z,99063.55
2018-02-15T02:29:15.250Z,99056.52
2018-02-15T02:31:42.766Z,99042.41
2018-02-15T02:34:10.329Z,99018.78
2018-02-15T02:36:37.855Z,99036.53
2018-02-15T02:39:05.483Z,99046.77
2018-02-15T02:41:33.033Z,99043.94
2018-02-15T02:44:00.563Z,99040.94
2018-02-15T02:46:28.116Z,99025.48
2018-02-15T02:48:55.689Z,99024.41
2018-02-15T02:51:23.248Z,99016.77
2018-02-15T02:53:50.801Z,99019.52
2018-02-15T02:56:19.417Z,99014.06
2018-02-15T02:58:46.957Z,99024.59
2018-02-15T03:01:14.506Z,99023.02
2018-02-15T03:03:42.054Z,99031.51
2018-02-15T03:06:09.583Z,99034.17
2018-02-15T03:08:37.159Z,99028.77
2018-02-15T03:11:04.713Z,99035.66
2018-02-15T03:13:32.317Z,99036.49
2018-02-15T03:15:59.842Z,99031.26
2018-02-15T03:18:27.419Z,99032.30
2018-02-15T03:20:54.947Z,99028.42
2018-02-15T03:23:22.475Z,99029.31
2018-02-15T03:25:50.098Z,99003.88
2018-02-15T03:28:17.680Z,99036.58
2018-02-15T03:30:45.234Z,99039.82
2018-02-15T03:33:12.759Z,99043.00
2018-02-15T03:35:40.310Z,99042.27
2018-02-15T03:38:07.834Z,99048.36
2018-02-15T03:40:35.383Z,99047.65
2018-02-15T03:43:03.041Z,99047.45
2018-02-15T03:45:30.599Z,99046.90
2018-02-15T03:47:58.118Z,99051.99
2018-02-15T03:50:25.703Z,99043.04
2018-02-15T03:52:53.251Z,99054.23
2018-02-15T03:55:21.726Z,99044.94
2018-02-15T03:57:49.279Z,99051.17
2018-02-15T04:00:16.805Z,99042.21
2018-02-15T04:02:44.423Z,99043.14
2018-02-15T04:05:11.965Z,99039.39
2018-02-15T04:07:39.514Z,99039.80
2018-02-15T04:10:07.041Z,99027.58
2018-02-15T04:12:34.616Z,99029.17
2018-02-15T04:15:02.169Z,99014.46
2018-02-15T04:17:29.780Z,99021.64
2018-02-15T04:19:57.350Z,99023.45
2018-02-15T04:22:24.895Z,99022.76
2018-02-15T04:24:52.454Z,99026.97
2018-02-15T04:27:19.980Z,99034.61
2018-02-15T04:29:47.540Z,99029.33
2018-02-15T04:32:15.059Z,99028.49
2018-02-15T04:34:42.614Z,99020.56
2018-02-15T04:37:10.149Z,99024.59
2018-02-15T04:39:37.717Z,99016.20
2018-02-15T04:42:05.246Z,99022.11
2018-02-15T04:44:32.769Z,99016.40
2018-02-15T04:47:00.320Z,99016.49
2018-02-15T04:49:27.856Z,99010.28
2018-02-15T04:51:55.423Z,99012.63
2018-02-15T04:54:22.956Z,99016.62
2018-02-15T04:56:50.535Z,99018.62
2018-02-15T04:59:18.064Z,99021.31
2018-02-15T05:01:45.630Z,99018.91
2018-02-15T05:04:13.172Z,99025.23
2018-02-15T05:06:40.691Z,99023.03
2018-02-15T05:09:08.271Z,99027.95
2018-02-15T05:11:35.833Z,99039.70
2018-02-15T05:14:03.643Z,99028.11
2018-02-15T05:16:31.200Z,99038.87
2018-02-15T05:18:58.831Z,99034.05
2018-02-15T05:21:26.378Z,99036.59
2018-02-15T05:23:53.985Z,99045.27
2018-02-15T05:26:22.133Z,99050.84
2018-02-15T05:28:49.714Z,99038.55
2018-02-15T05:31:17.241Z,99049.84
2018-02-15T05:33:45.023Z,99049.89
2018-02-15T05:36:12.567Z,99060.67
2018-02-15T05:38:40.095Z,99068.31
2018-02-15T05:41:07.649Z,99055.22
2018-02-15T05:43:35.276Z,99052.58
2018-02-15T05:46:02.830Z,99053.19
2018-02-15T05:48:30.354Z,99064.75
2018-02-15T05:50:57.907Z,99060.73
2018-02-15T05:53:25.464Z,99064.30
2018-02-15T05:55:53.073Z,99068.18
2018-02-15T05:58:20.612Z,99070.77
2018-02-15T06:00:48.147Z,99057.63
2018-02-15T06:03:15.699Z,99057.67
2018-02-15T06:05:43.220Z,99054.44
2018-02-15T06:08:10.774Z,99042.64
2018-02-15T06:10:38.298Z,99044.81
2018-02-15T06:13:05.851Z,99039.08
2018-02-15T06:15:33.445Z,99036.21
2018-02-15T06:18:00.980Z,99030.48
2018-02-15T06:20:28.506Z,99034.17
2018-02-15T06:22:56.061Z,99043.34
2018-02-15T06:25:23.589Z,99028.30
2018-02-15T06:27:51.190Z,99036.17
2018-02-15T06:30:18.744Z,99027.56
2018-02-15T06:32:46.275Z,99028.16
2018-02-15T06:35:13.908Z,99008.65
2018-02-15T06:37:41.426Z,99012.39
2018-02-15T06:40:08.980Z,99008.38
2018-02-15T06:42:36.631Z,99008.83
2018-02-15T06:45:04.174Z,99005.36
2018-02-15T06:47:31.993Z,98998.62
2018-02-15T06:49:59.560Z,99007.59
2018-02-15T06:52:27.228Z,99004.07
2018-02-15T06:54:54.765Z,98996.27
2018-02-15T06:57:22.467Z,99007.16
2018-02-15T06:59:50.072Z,99005.31
2018-02-15T07:02:17.646Z,99019.35
2018-02-15T07:04:45.174Z,99013.45
2018-02-15T07:07:12.743Z,99029.82
2018-02-15T07:09:40.373Z,99029.27
2018-02-15T07:12:07.931Z,99037.59
2018-02-15T07:14:35.459Z,99011.80
2018-02-15T07:17:03.042Z,99026.72
2018-02-15T07:19:30.562Z,99032.80
2018-02-15T07:21:58.091Z,99027.28
2018-02-15T07:24:25.672Z,99024.55
2018-02-15T07:26:55.493Z,99008.88
2018-02-15T07:29:23.714Z,99049.83
2018-02-15T07:31:51.231Z,99041.52
2018-02-15T07:34:18.804Z,99043.91
2018-02-15T07:36:46.353Z,99045.05
2018-02-15T07:39:13.930Z,99048.74
2018-02-15T07:41:41.489Z,99042.61
2018-02-15T07:44:09.066Z,99053.63
2018-02-15T07:46:36.589Z,99044.33
2018-02-15T07:49:04.114Z,99051.38
2018-02-15T07:51:31.742Z,99050.92
2018-02-15T07:53:59.414Z,99053.56
2018-02-15T07:56:27.198Z,99054.66
2018-02-15T07:58:54.796Z,99063.34
2018-02-15T08:01:23.000Z,99072.67
2018-02-15T08:03:51.430Z,99081.36
2018-02-15T08:06:20.423Z,99071.91
2018-02-15T08:08:48.057Z,99074.02
2018-02-15T08:11:15.690Z,99048.50
2018-02-15T08:13:43.336Z,99058.66
2018-02-15T08:16:10.839Z,99049.73
2018-02-15T08:18:38.809Z,99058.24
2018-02-15T08:21:06.440Z,99080.76
2018-02-15T08:23:34.022Z,99074.16
2018-02-15T08:26:01.696Z,99071.94
2018-02-15T08:28:29.251Z,99074.14
2018-02-15T08:30:56.778Z,99069.83
2018-02-15T08:33:25.174Z,99076.20
2018-02-15T08:35:52.930Z,99087.58
2018-02-15T08:38:20.462Z,99080.23
2018-02-15T08:40:48.064Z,99076.92
2018-02-15T08:43:15.615Z,99081.72
2018-02-15T08:45:43.195Z,99082.31
2018-02-15T08:48:10.720Z,99094.81
2018-02-15T08:50:38.299Z,99094.76
2018-02-15T08:53:05.844Z,99090.08
2018-02-15T08:55:33.402Z,99087.14
2018-02-15T08:58:01.326Z,99087.84
2018-02-15T09:00:29.206Z,99100.02
2018-02-15T09:02:56.732Z,99101.65
2018-02-15T09:05:24.263Z,99102.39
2018-02-15T09:07:51.837Z,99104.31
2018-02-15T09:10:19.389Z,99096.26
2018-02-15T09:12:46.994Z,99094.45
2018-02-15T09:15:14.519Z,99108.15
2018-02-15T09:17:42.070Z,99097.67
2018-02-15T09:20:09.608Z,99099.65
2018-02-15T09:22:38.161Z,99104.27
2018-02-15T09:25:05.756Z,99105.77
2018-02-15T09:27:33.308Z,99112.31
2018-02-15T09:30:00.837Z,99110.59
2018-02-15T09:32:28.487Z,99109.91
2018-02-15T09:34:56.011Z,99123.25
2018-02-15T09:37:24.515Z,99098.70
2018-02-15T09:39:52.134Z,99127.68
2018-02-15T09:42:19.692Z,99135.31
2018-02-15T09:44:47.365Z,99141.09
2018-02-15T09:47:14.899Z,99142.19
2018-02-15T09:49:42.451Z,99136.22
2018-02-15T09:52:10.258Z,99137.91
2018-02-15T09:54:39.389Z,99138.63
2018-02-15T09:57:06.907Z,99137.45
2018-02-15T09:59:34.484Z,99147.94
2018-02-15T10:02:03.058Z,99143.00
2018-02-15T10:04:30.592Z,99136.92
2018-02-15T10:06:58.414Z,99138.64
2018-02-15T10:09:26.545Z,99130.75
2018-02-15T10:11:54.615Z,99134.28
2018-02-15T10:14:22.850Z,99128.56
2018-02-15T10:16:50.476Z,99128.52
2018-02-15T10:19:18.109Z,99133.35
2018-02-15T10:21:45.704Z,99126.02
2018-02-15T10:24:17.861Z,99114.81
2018-02-15T10:26:51.784Z,99116.59
2018-02-15T10:29:23.685Z,99128.42
2018-02-15T10:31:56.064Z,99121.55
2018-02-15T10:34:29.290Z,99132.16
2018-02-15T10:39:40.149Z,99113.62
2018-02-15T10:42:13.955Z,99131.27
2018-02-15T10:44:46.520Z,99116.10
2018-02-15T10:47:23.336Z,99121.42
2018-02-15T10:49:56.632Z,99125.49
2018-02-15T10:52:30.181Z,99129.52
2018-02-15T10:55:04.345Z,99125.50
2018-02-15T11:00:14.398Z,99138.30
2018-02-15T11:02:46.254Z,99148.57
2018-02-15T11:05:19.692Z,99142.81
2018-02-15T11:07:50.691Z,99140.13
2018-02-15T11:10:22.030Z,99143.59
2018-02-15T11:12:54.220Z,99137.60
2018-02-15T11:15:26.348Z,99135.57
2018-02-15T11:18:00.206Z,99136.02
2018-02-15T11:20:31.378Z,99129.82
2018-02-15T11:23:08.089Z,99132.72
2018-02-15T11:25:40.582Z,99142.34
2018-02-15T11:28:10.371Z,99145.16
2018-02-15T11:30:38.018Z,99143.33
2018-02-15T11:33:05.620Z,99141.97
2018-02-15T11:35:33.147Z,99147.55
2018-02-15T11:38:00.676Z,99148.30
2018-02-15T11:40:28.254Z,99149.95
2018-02-15T11:42:56.431Z,99146.00
2018-02-15T11:45:23.982Z,99135.19
2018-02-15T11:47:51.510Z,99135.95
2018-02-15T11:50:19.055Z,99138.72
2018-02-15T11:52:47.133Z,99136.31
2018-02-15T11:55:14.687Z,99132.31
2018-02-15T11:57:42.218Z,99133.03
2018-02-15T12:00:09.794Z,99126.73
2018-02-15T12:02:37.324Z,99130.97
2018-02-15T12:05:04.851Z,99134.98
2018-02-15T12:07:32.401Z,99140.56
2018-02-15T12:09:59.926Z,99138.45
2018-02-15T12:12:27.477Z,99153.90
2018-02-15T12:14:55.011Z,99155.69
2018-02-15T12:17:22.561Z,99163.19
2018-02-15T12:19:50.092Z,99156.16
2018-02-15T12:22:17.638Z,99162.48
2018-02-15T12:24:51.448Z,99153.72
2018-02-15T12:27:19.245Z,99153.07
2018-02-15T12:29:46.789Z,99154.14
2018-02-15T12:32:14.350Z,99153.25
2018-02-15T12:34:44.871Z,99156.52
2018-02-15T12:37:13.594Z,99146.94
2018-02-15T12:39:42.810Z,99153.97
2018-02-15T12:42:10.658Z,99160.53
2018-02-15T12:44:39.354Z,99154.16
2018-02-15T12:47:07.491Z,99158.34
2018-02-15T12:49:37.635Z,99170.23
2018-02-15T12:52:05.893Z,99155.97
2018-02-15T12:54:35.297Z,99154.43
2018-02-15T12:57:02.998Z,99158.75
2018-02-15T12:59:33.462Z,99162.19
2018-02-15T13:02:03.207Z,99172.36
2018-02-15T13:04:32.823Z,99160.70
2018-02-15T13:07:00.910Z,99164.23
2018-02-15T13:09:35.208Z,99165.73
2018-02-15T13:12:11.466Z,99168.58
2018-02-15T13:14:45.215Z,99168.28
2018-02-15T13:20:04.800Z,99176.96
2018-02-15T13:22:47.872Z,99167.52
2018-02-15T13:28:09.553Z,99170.45
2018-02-15T13:30:46.629Z,99186.13
2018-02-15T13:33:21.029Z,99181.41
2018-02-15T13:41:07.490Z,99174.78
2018-02-15T13:43:41.744Z,99172.64
2018-02-15T13:46:16.454Z,99179.39
2018-02-15T13:48:48.243Z,99183.22
2018-02-15T13:51:27.781Z,99175.77
2018-02-15T13:54:02.679Z,99176.00
2018-02-15T13:56:38.424Z,99169.75
2018-02-15T14:01:46.212Z,99174.88
2018-02-15T14:04:19.579Z,99175.52
2018-02-15T14:06:52.241Z,99168.61
2018-02-15T14:09:24.976Z,99164.94
2018-02-15T14:11:57.537Z,99168.95
2018-02-15T14:14:32.381Z,99181.62
2018-02-15T14:17:06.319Z,99188.55
2018-02-15T14:19:39.868Z,99191.79
2018-02-15T14:22:11.345Z,99204.08
2018-02-15T14:24:40.074Z,99205.51
2018-02-15T14:27:08.099Z,99204.14
2018-02-15T14:29:37.948Z,99200.27
2018-02-15T14:32:10.080Z,99199.59
2018-02-15T14:34:40.094Z,99199.53
2018-02-15T14:37:08.884Z,99208.48
2018-02-15T14:39:38.596Z,99210.58
2018-02-15T14:42:06.343Z,99210.52
2018-02-15T14:44:34.498Z,99208.39
2018-02-15T14:47:02.322Z,99215.79
2018-02-15T14:49:31.153Z,99218.84
2018-02-15T14:52:00.483Z,99226.80
2018-02-15T14:54:28.999Z,99221.36
2018-02-15T14:57:01.466Z,99217.33
2018-02-15T14:59:29.359Z,99211.41
2018-02-15T15:01:58.757Z,99217.80
2018-02-15T15:04:28.111Z,99219.22
2018-02-15T15:06:58.165Z,99213.59
2018-02-15T15:09:28.306Z,99212.06
2018-02-15T15:11:59.976Z,99223.19
2018-02-15T15:14:28.922Z,99214.41
2018-02-15T15:16:59.222Z,99210.08
2018-02-15T15:19:29.954Z,99208.36
2018-02-15T15:21:59.296Z,99218.88
2018-02-15T15:24:28.136Z,99211.41
2018-02-15T15:26:56.549Z,99209.17
2018-02-15T15:29:27.866Z,99217.81
2018-02-15T15:31:56.450Z,99218.71
2018-02-15T15:34:25.572Z,99221.73
2018-02-15T15:36:53.140Z,99232.91
2018-02-15T15:39:22.839Z,99238.72
2018-02-15T15:41:50.921Z,99238.41
2018-02-15T15:44:19.449Z,99246.58
2018-02-15T15:46:47.028Z,99240.68
2018-02-15T15:49:14.578Z,99252.29
2018-02-15T15:51:42.175Z,99254.45
2018-02-15T15:54:09.711Z,99247.92
2018-02-15T15:56:37.937Z,99256.16
2018-02-15T15:59:05.795Z,99262.73
2018-02-15T16:01:33.623Z,99259.95
2018-02-15T16:04:02.168Z,99262.90
2018-02-15T16:06:29.694Z,99264.70
2018-02-15T16:08:57.876Z,99275.58
2018-02-15T16:11:25.470Z,99277.09
2018-02-15T16:13:53.055Z,99280.72
2018-02-15T16:16:20.604Z,99283.52
2018-02-15T16:18:49.058Z,99287.64
2018-02-15T16:21:16.583Z,99282.73
2018-02-15T16:23:45.631Z,99283.33
2018-02-15T16:26:13.189Z,99288.78
2018-02-15T16:28:40.739Z,99289.30
2018-02-15T16:31:08.292Z,99284.52
2018-02-15T16:33:35.873Z,99288.05
2018-02-15T16:36:03.422Z,99293.39
2018-02-15T16:38:31.150Z,99295.52
2018-02-15T16:40:58.754Z,99282.39
2018-02-15T16:43:29.707Z,99299.83
2018-02-15T16:45:59.511Z,99308.37
2018-02-15T16:48:27.988Z,99299.66
2018-02-15T16:50:58.258Z,99301.33
2018-02-15T16:56:16.414Z,99310.50
2018-02-15T16:58:48.880Z,99313.64
2018-02-15T17:01:19.274Z,99310.91
2018-02-15T17:03:48.391Z,99311.42
2018-02-15T17:06:19.151Z,99320.48
2018-02-15T17:08:48.078Z,99315.33
2018-02-15T17:11:16.651Z,99321.20
2018-02-15T17:13:46.231Z,99320.31
2018-02-15T17:16:14.585Z,99316.95
2018-02-15T17:18:45.809Z,99326.96
2018-02-15T17:21:15.623Z,99325.60
2018-02-15T17:23:44.490Z,99334.33
2018-02-15T17:26:14.038Z,99344.84
2018-02-15T17:28:43.348Z,99355.39
2018-02-15T17:31:11.106Z,99358.19
2018-02-15T17:33:40.629Z,99354.97
2018-02-15T17:36:08.818Z,99353.55
2018-02-15T17:38:38.131Z,99354.73
2018-02-15T17:41:07.075Z,99348.99
2018-02-15T17:43:35.831Z,99351.95
2018-02-15T17:48:44.714Z,99372.39
2018-02-15T17:51:14.023Z,99376.80
2018-02-15T17:53:44.787Z,99381.97
2018-02-15T17:56:14.288Z,99401.09
2018-02-15T17:58:43.225Z,99399.50
2018-02-15T18:01:14.608Z,99407.83
2018-02-15T18:03:42.628Z,99412.25
2018-02-15T18:06:11.328Z,99417.18
2018-02-15T18:08:41.729Z,99428.20
2018-02-15T18:11:11.163Z,99409.17
2018-02-15T18:13:41.636Z,99405.64
2018-02-15T18:16:12.109Z,99406.61
2018-02-15T18:18:41.564Z,99409.30
2018-02-15T18:21:09.992Z,99413.32
2018-02-15T18:23:40.130Z,99430.59
2018-02-15T18:28:51.193Z,99413.67
2018-02-15T18:31:18.779Z,99420.70
2018-02-15T18:33:46.458Z,99420.81
2018-02-15T18:36:15.446Z,99430.95
2018-02-15T18:38:43.686Z,99419.25
2018-02-15T18:41:11.210Z,99422.01
2018-02-15T18:43:38.738Z,99427.10
2018-02-15T18:46:06.296Z,99432.09
2018-02-15T18:48:33.815Z,99430.02
2018-02-15T18:51:01.398Z,99428.20
2018-02-15T18:53:29.130Z,99433.45
2018-02-15T18:55:56.719Z,99416.27
2018-02-15T18:58:24.279Z,99411.31
2018-02-15T19:00:51.839Z,99413.20
2018-02-15T19:03:19.392Z,99424.52
2018-02-15T19:05:47.035Z,99424.14
2018-02-15T19:08:15.054Z,99430.28
2018-02-15T19:10:42.613Z,99424.25
2018-02-15T19:13:10.141Z,99437.45
2018-02-15T19:15:37.672Z,99440.45
2018-02-15T19:18:05.222Z,99448.09
2018-02-15T19:20:32.746Z,99449.02
2018-02-15T19:23:00.304Z,99451.09
2018-02-15T19:25:27.826Z,99441.94
2018-02-15T19:27:56.259Z,99458.08
2018-02-15T19:30:24.888Z,99447.25
2018-02-15T19:32:53.411Z,99448.09
2018-02-15T19:35:20.963Z,99457.47
2018-02-15T19:37:48.514Z,99465.63
2018-02-15T19:40:16.037Z,99474.16
2018-02-15T19:42:43.594Z,99471.04
2018-02-15T19:45:11.122Z,99476.45
2018-02-15T19:47:39.083Z,99474.75
2018-02-15T19:50:06.803Z,99477.54
2018-02-15T19:52:34.323Z,99483.84
2018-02-15T19:55:01.900Z,99482.50
2018-02-15T19:57:29.531Z,99480.52
2018-02-15T19:59:57.086Z,99476.56
2018-02-15T20:02:24.610Z,99469.22
2018-02-15T20:04:52.202Z,99467.09
2018-02-15T20:07:19.746Z,99465.47
2018-02-15T20:09:47.314Z,99462.36
2018-02-15T20:12:14.844Z,99465.53
2018-02-15T20:14:42.398Z,99465.59
2018-02-15T20:17:10.994Z,99469.17
2018-02-15T20:19:49.170Z,99460.58
2018-02-15T20:22:16.706Z,99462.30
2018-02-15T20:24:44.231Z,99449.45
2018-02-15T20:27:17.516Z,99459.81
2018-02-15T20:29:47.584Z,99456.42
2018-02-15T20:32:16.294Z,99463.55
2018-02-15T20:34:43.891Z,99460.53
2018-02-15T20:37:11.438Z,99471.82
2018-02-15T20:39:44.652Z,99474.06
2018-02-15T20:42:12.247Z,99476.20
2018-02-15T20:44:39.813Z,99472.41
2018-02-15T20:47:07.478Z,99483.79
2018-02-15T20:52:40.183Z,99486.29
2018-02-15T20:55:13.284Z,99471.93
2018-02-15T20:57:40.847Z,99473.43
2018-02-15T21:00:08.491Z,99486.12
2018-02-15T21:02:36.146Z,99485.45
2018-02-15T21:05:03.697Z,99487.84
2018-02-15T21:07:31.229Z,99491.75
2018-02-15T21:10:00.548Z,99503.16
2018-02-15T21:12:28.810Z,99511.95
2018-02-15T21:14:56.427Z,99500.77
2018-02-15T21:17:24.707Z,99498.03
2018-02-15T21:19:52.403Z,99499.55
2018-02-15T21:22:20.511Z,99512.20
2018-02-15T21:24:48.169Z,99513.72
2018-02-15T21:27:16.960Z,99504.86
2018-02-15T21:29:46.593Z,99515.31
2018-02-15T21:32:14.430Z,99517.71
2018-02-15T21:34:41.991Z,99520.78
2018-02-15T21:37:09.938Z,99539.03
2018-02-15T21:39:37.528Z,99536.94
2018-02-15T21:42:05.431Z,99558.62
2018-02-15T21:44:33.131Z,99555.62
2018-02-15T21:47:01.038Z,99550.53
2018-02-15T21:49:28.631Z,99555.94
2018-02-15T21:51:58.472Z,99571.34
2018-02-15T21:54:26.187Z,99570.14
2018-02-15T21:56:53.751Z,99562.55
2018-02-15T21:59:22.804Z,99580.26
2018-02-15T22:01:52.614Z,99568.11
2018-02-15T22:04:21.992Z,99568.17
2018-02-15T22:06:52.906Z,99564.65
2018-02-15T22:09:21.279Z,99563.16
2018-02-15T22:11:49.358Z,99562.22
2018-02-15T22:14:16.930Z,99574.63
2018-02-15T22:16:44.525Z,99584.01
2018-02-15T22:19:12.086Z,99579.50
2018-02-15T22:21:39.914Z,99594.91
2018-02-15T22:24:07.868Z,99599.45
2018-02-15T22:26:36.785Z,99612.14
2018-02-15T22:29:04.427Z,99619.34
2018-02-15T22:31:32.724Z,99617.44
2018-02-15T22:34:00.307Z,99623.70
2018-02-15T22:36:31.003Z,99630.53
2018-02-15T22:38:59.335Z,99630.58
2018-02-15T22:41:27.513Z,99642.89
2018-02-15T22:43:55.582Z,99633.05
2018-02-15T22:46:24.117Z,99629.73
2018-02-15T22:48:51.746Z,99645.30
2018-02-15T22:51:19.393Z,99645.13
2018-02-15T22:53:48.419Z,99635.47
2018-02-15T22:56:16.314Z,99644.19
2018-02-15T22:58:43.852Z,99635.37
2018-02-15T23:01:14.103Z,99639.32
2018-02-15T23:03:41.653Z,99634.48
2018-02-15T23:06:09.232Z,99643.78
2018-02-15T23:08:36.810Z,99642.80
2018-02-15T23:11:04.358Z,99648.55
2018-02-15T23:13:32.012Z,99648.75
2018-02-15T23:16:00.590Z,99656.03
2018-02-15T23:18:28.485Z,99646.98
2018-02-15T23:20:56.042Z,99661.23
2018-02-15T23:23:23.593Z,99656.73
2018-02-15T23:25:51.194Z,99665.75
2018-02-15T23:28:18.736Z,99668.53
2018-02-15T23:30:46.578Z,99665.03
2018-02-15T23:33:14.216Z,99660.50
2018-02-15T23:35:41.839Z,99656.59
2018-02-15T23:38:09.441Z,99665.87
2018-02-15T23:40:37.014Z,99669.47
2018-02-15T23:43:04.638Z,99680.58
2018-02-15T23:45:32.310Z,99672.31
2018-02-15T23:48:00.402Z,99672.69
2018-02-15T23:50:27.956Z,99683.95
2018-02-15T23:52:55.949Z,99678.41
2018-02-15T23:55:23.770Z,99680.77
2018-02-15T23:57:51.657Z,99689.58
